LJPZ/POW METAR and TAF weather

Enter ICAO airport designator
Station Type Date Time Source
LJPZ METAR 2019/12/08 17:00 UTC NOAA

LJPZ 081700Z VRB02KT 8000 BKN050 09/07 Q1018


Station Type Date Time Source
LJPZ Decoded METAR 2019/12/08 17:00 UTC NOAA

Portoroz, Slovenia (LJPZ) 45-31N 013-34E
Dec 08, 2019 - 12:00 PM EST / 2019.12.08 1700 UTC
Wind: Variable at 2 MPH (2 KT):0
Visibility: 4 mile(s):0
Sky conditions: mostly cloudy
Temperature: 48 F (9 C)
Dew Point: 44 F (7 C)
Relative Humidity: 87%
Pressure (altimeter): 30.06 in. Hg (1018 hPa)
ob: LJPZ 081700Z VRB02KT 8000 BKN050 09/07 Q1018
cycle: 17

Station Type Date Time Source
LJPZ TAF 2008/06/02 05:30 UTC NOAA

TAF TAF LJPZ 020530Z 021615 VRB02KT 6000 NSC
BECMG 0911 30005KT 9999 FEW040

Example: see airport list